SCSU weather

Santa Lucía Airport
Freire, Araucanía Region, Chile

Public forecast

Using degrees Celsius for public forecast. Weather courtesy of forecast.io.

Closest aviation weather report (METAR) to Santa Lucía Airport

Closest report is La Araucanía Airport, 13.3 nm (24.7 km) W. Retrieved 2020/04/08 05:00 UTC (15 minutes ago):

SCQP 080500Z AUTO VRB01KT 9999 1200 R01/0800VP2000D BCFG NCD 05/05 Q1013

Closest aviation forecast (TAF) to Santa Lucía Airport

Closest forecast is La Araucanía Airport, 13.3 nm (24.7 km) W. Retrieved 2020-04-08 00:00 UTC (5 hours ago):

TAF SCQP 072259Z 0800/0824 21007KT CAVOK TN01/0810Z TX27/0819Z BECMG 0802/0804 11005KT PROB40 TEMPO 0808/0812 0600 FG BKN001 BECMG 0812/0814 VRB02KT BECMG 0819/0821 27005KT